createdAt,value
2018-02-10T00:02:16.231Z,94535.80
2018-02-10T00:04:44.597Z,94537.89
2018-02-10T00:07:12.999Z,94544.38
2018-02-10T00:09:41.403Z,94546.56
2018-02-10T00:12:09.830Z,94551.03
2018-02-10T00:14:38.247Z,94541.25
2018-02-10T00:17:06.739Z,94551.23
2018-02-10T00:19:35.133Z,94544.91
2018-02-10T00:22:03.536Z,94543.73
2018-02-10T00:24:31.925Z,94541.53
2018-02-10T00:27:00.313Z,94545.73
2018-02-10T00:29:28.774Z,94543.81
2018-02-10T00:31:57.191Z,94544.27
2018-02-10T00:34:25.584Z,94534.65
2018-02-10T00:36:54.000Z,94538.19
2018-02-10T00:39:22.473Z,94540.34
2018-02-10T00:41:50.965Z,94546.60
2018-02-10T00:44:19.389Z,94549.83
2018-02-10T00:46:47.840Z,94544.13
2018-02-10T00:49:16.207Z,94541.08
2018-02-10T00:51:44.681Z,94542.96
2018-02-10T00:54:13.069Z,94544.02
2018-02-10T00:56:41.486Z,94545.77
2018-02-10T00:59:09.873Z,94547.73
2018-02-10T01:01:38.362Z,94545.95
2018-02-10T01:04:06.739Z,94545.66
2018-02-10T01:06:35.163Z,94543.19
2018-02-10T01:09:03.568Z,94548.11
2018-02-10T01:11:31.980Z,94554.69
2018-02-10T01:14:00.393Z,94540.81
2018-02-10T01:16:28.860Z,94548.52
2018-02-10T01:18:57.293Z,94542.67
2018-02-10T01:21:25.701Z,94545.30
2018-02-10T01:23:54.268Z,94542.38
2018-02-10T01:26:22.663Z,94549.60
2018-02-10T01:28:51.068Z,94540.23
2018-02-10T01:31:19.470Z,94541.91
2018-02-10T01:33:47.850Z,94546.61
2018-02-10T01:36:16.377Z,94550.87
2018-02-10T01:38:44.770Z,94543.07
2018-02-10T01:41:13.157Z,94551.44
2018-02-10T01:43:41.551Z,94548.22
2018-02-10T01:46:09.942Z,94550.83
2018-02-10T01:48:38.430Z,94545.86
2018-02-10T01:51:06.829Z,94540.39
2018-02-10T01:53:35.238Z,94544.70
2018-02-10T01:56:03.728Z,94545.29
2018-02-10T01:58:32.194Z,94544.80
2018-02-10T02:01:00.606Z,94544.28
2018-02-10T02:03:29.003Z,94543.97
2018-02-10T02:05:57.422Z,94542.53
2018-02-10T02:08:25.826Z,94543.20
2018-02-10T02:10:54.312Z,94549.05
2018-02-10T02:13:22.705Z,94553.06
2018-02-10T02:15:51.113Z,94555.20
2018-02-10T02:18:19.532Z,94549.72
2018-02-10T02:20:48.103Z,94553.41
2018-02-10T02:23:16.481Z,94550.22
2018-02-10T02:25:44.873Z,94551.23
2018-02-10T02:28:13.248Z,94547.51
2018-02-10T02:30:41.615Z,94538.28
2018-02-10T02:33:10.168Z,94535.20
2018-02-10T02:35:38.563Z,94534.94
2018-02-10T02:38:06.971Z,94535.22
2018-02-10T02:40:35.365Z,94543.84
2018-02-10T02:43:03.835Z,94539.27
2018-02-10T02:45:32.250Z,94537.65
2018-02-10T02:48:00.719Z,94541.67
2018-02-10T02:50:29.187Z,94538.44
2018-02-10T02:52:57.564Z,94535.55
2018-02-10T02:55:26.158Z,94538.43
2018-02-10T02:57:54.593Z,94540.78
2018-02-10T03:00:22.960Z,94543.51
2018-02-10T03:02:51.409Z,94537.86
2018-02-10T03:05:19.806Z,94540.58
2018-02-10T03:07:48.219Z,94542.77
2018-02-10T03:10:16.751Z,94548.00
2018-02-10T03:12:45.122Z,94547.62
2018-02-10T03:15:13.529Z,94554.16
2018-02-10T03:17:41.990Z,94555.72
2018-02-10T03:20:10.351Z,94552.94
2018-02-10T03:22:38.832Z,94553.69
2018-02-10T03:25:07.238Z,94553.41
2018-02-10T03:27:35.703Z,94551.74
2018-02-10T03:30:04.075Z,94555.77
2018-02-10T03:32:32.545Z,94554.00
2018-02-10T03:35:00.913Z,94544.43
2018-02-10T03:37:29.287Z,94547.30
2018-02-10T03:39:58.030Z,94542.34
2018-02-10T03:42:26.453Z,94541.63
2018-02-10T03:44:54.848Z,94539.88
2018-02-10T03:47:23.251Z,94538.31
2018-02-10T03:49:51.605Z,94545.80
2018-02-10T03:52:20.159Z,94537.73
2018-02-10T03:54:48.665Z,94538.03
2018-02-10T03:57:17.031Z,94541.97
2018-02-10T03:59:45.443Z,94549.34
2018-02-10T04:02:13.830Z,94536.75
2018-02-10T04:04:42.206Z,94544.59
2018-02-10T04:07:10.623Z,94547.94
2018-02-10T04:09:39.023Z,94544.95
2018-02-10T04:12:07.551Z,94549.95
2018-02-10T04:14:35.926Z,94550.49
2018-02-10T04:17:04.331Z,94547.38
2018-02-10T04:19:32.733Z,94546.39
2018-02-10T04:22:01.195Z,94551.86
2018-02-10T04:24:29.559Z,94548.66
2018-02-10T04:26:57.954Z,94557.20
2018-02-10T04:29:26.360Z,94547.75
2018-02-10T04:31:54.754Z,94554.73
2018-02-10T04:34:23.200Z,94552.94
2018-02-10T04:36:51.606Z,94559.66
2018-02-10T04:39:20.092Z,94558.28
2018-02-10T04:41:48.503Z,94560.44
2018-02-10T04:44:16.900Z,94558.17
2018-02-10T04:46:45.290Z,94555.31
2018-02-10T04:49:13.662Z,94552.17
2018-02-10T04:51:42.052Z,94555.03
2018-02-10T04:54:10.436Z,94548.94
2018-02-10T04:56:38.871Z,94552.91
2018-02-10T04:59:07.287Z,94556.02
2018-02-10T05:01:35.701Z,94560.55
2018-02-10T05:04:04.104Z,94562.37
2018-02-10T05:06:32.582Z,94565.89
2018-02-10T05:09:01.343Z,94565.14
2018-02-10T05:11:29.733Z,94566.25
2018-02-10T05:13:58.096Z,94566.98
2018-02-10T05:16:26.488Z,94569.42
2018-02-10T05:18:54.922Z,94567.13
2018-02-10T05:21:23.348Z,94570.25
2018-02-10T05:23:51.717Z,94566.83
2018-02-10T05:26:20.114Z,94569.77
2018-02-10T05:28:48.551Z,94577.22
2018-02-10T05:31:16.995Z,94578.16
2018-02-10T05:33:45.464Z,94578.77
2018-02-10T05:36:13.866Z,94579.63
2018-02-10T05:38:42.272Z,94577.23
2018-02-10T05:41:10.679Z,94570.78
2018-02-10T05:43:39.044Z,94580.91
2018-02-10T05:46:07.698Z,94578.70
2018-02-10T05:48:36.077Z,94580.55
2018-02-10T05:51:04.441Z,94576.38
2018-02-10T05:53:32.822Z,94578.08
2018-02-10T05:56:01.223Z,94577.53
2018-02-10T05:58:29.629Z,94573.31
2018-02-10T06:00:58.013Z,94569.11
2018-02-10T06:03:27.037Z,94573.84
2018-02-10T06:05:55.463Z,94567.40
2018-02-10T06:08:23.875Z,94569.67
2018-02-10T06:10:52.274Z,94571.20
2018-02-10T06:13:20.751Z,94573.58
2018-02-10T06:15:49.198Z,94580.88
2018-02-10T06:18:17.606Z,94579.33
2018-02-10T06:20:46.065Z,94580.78
2018-02-10T06:23:14.856Z,94579.95
2018-02-10T06:25:43.217Z,94589.81
2018-02-10T06:28:11.637Z,94591.56
2018-02-10T06:30:40.051Z,94589.73
2018-02-10T06:33:08.549Z,94597.62
2018-02-10T06:35:36.973Z,94596.80
2018-02-10T06:38:05.374Z,94596.42
2018-02-10T06:40:33.790Z,94596.84
2018-02-10T06:43:02.182Z,94603.46
2018-02-10T06:45:30.699Z,94605.34
2018-02-10T06:47:59.130Z,94608.64
2018-02-10T06:50:27.711Z,94612.70
2018-02-10T06:52:56.091Z,94617.08
2018-02-10T06:55:24.487Z,94616.70
2018-02-10T06:57:52.902Z,94603.23
2018-02-10T07:00:21.312Z,94605.72
2018-02-10T07:02:49.782Z,94605.91
2018-02-10T07:05:18.189Z,94604.94
2018-02-10T07:07:46.622Z,94608.38
2018-02-10T07:10:15.019Z,94611.55
2018-02-10T07:12:43.417Z,94606.02
2018-02-10T07:15:11.987Z,94610.94
2018-02-10T07:17:40.384Z,94607.21
2018-02-10T07:20:08.803Z,94607.67
2018-02-10T07:22:37.201Z,94611.19
2018-02-10T07:25:05.687Z,94610.13
2018-02-10T07:27:34.463Z,94621.67
2018-02-10T07:30:02.867Z,94621.18
2018-02-10T07:32:31.291Z,94621.85
2018-02-10T07:34:59.706Z,94619.81
2018-02-10T07:37:28.081Z,94624.02
2018-02-10T07:39:56.536Z,94622.29
2018-02-10T07:42:25.037Z,94627.31
2018-02-10T07:44:53.438Z,94634.70
2018-02-10T07:47:21.837Z,94632.16
2018-02-10T07:49:50.228Z,94635.58
2018-02-10T07:52:18.649Z,94643.72
2018-02-10T07:54:47.036Z,94643.71
2018-02-10T07:57:15.504Z,94645.71
2018-02-10T07:59:43.914Z,94639.64
2018-02-10T08:02:12.302Z,94640.83
2018-02-10T08:04:40.704Z,94641.55
2018-02-10T08:07:09.175Z,94642.91
2018-02-10T08:09:38.125Z,94634.92
2018-02-10T08:12:06.547Z,94632.55
2018-02-10T08:14:34.967Z,94638.60
2018-02-10T08:17:03.371Z,94642.84
2018-02-10T08:19:31.760Z,94637.64
2018-02-10T08:22:00.371Z,94640.87
2018-02-10T08:24:28.779Z,94634.34
2018-02-10T08:26:57.283Z,94636.70
2018-02-10T08:29:25.686Z,94641.42
2018-02-10T08:31:54.168Z,94637.95
2018-02-10T08:34:22.689Z,94639.75
2018-02-10T08:36:51.136Z,94651.70
2018-02-10T08:39:19.550Z,94650.03
2018-02-10T08:41:47.991Z,94653.17
2018-02-10T08:44:16.427Z,94648.94
2018-02-10T08:46:45.309Z,94651.45
2018-02-10T08:49:13.884Z,94650.69
2018-02-10T08:51:42.300Z,94650.00
2018-02-10T08:54:11.604Z,94645.52
2018-02-10T08:56:40.011Z,94644.92
2018-02-10T08:59:08.429Z,94649.63
2018-02-10T09:01:37.305Z,94655.03
2018-02-10T09:04:05.742Z,94660.85
2018-02-10T09:06:34.138Z,94670.06
2018-02-10T09:09:02.553Z,94665.98
2018-02-10T09:11:31.192Z,94665.90
2018-02-10T09:13:59.676Z,94665.83
2018-02-10T09:16:28.122Z,94655.81
2018-02-10T09:18:56.534Z,94658.61
2018-02-10T09:21:24.922Z,94655.86
2018-02-10T09:23:53.327Z,94651.47
2018-02-10T09:26:21.823Z,94652.36
2018-02-10T09:28:50.205Z,94650.45
2018-02-10T09:31:18.668Z,94658.69
2018-02-10T09:33:47.080Z,94654.70
2018-02-10T09:36:15.501Z,94643.55
2018-02-10T09:38:44.354Z,94647.11
2018-02-10T09:41:12.749Z,94648.36
2018-02-10T09:43:41.147Z,94654.47
2018-02-10T09:46:09.558Z,94650.97
2018-02-10T09:48:40.706Z,94652.17
2018-02-10T09:51:09.109Z,94658.97
2018-02-10T09:53:42.361Z,94652.84
2018-02-10T09:56:10.745Z,94656.48
2018-02-10T09:58:39.151Z,94651.09
2018-02-10T10:01:07.555Z,94655.91
2018-02-10T10:03:36.055Z,94660.91
2018-02-10T10:06:04.499Z,94663.56
2018-02-10T10:08:33.009Z,94663.31
2018-02-10T10:11:01.485Z,94661.01
2018-02-10T10:13:29.992Z,94656.45
2018-02-10T10:15:58.475Z,94658.09
2018-02-10T10:18:27.211Z,94658.26
2018-02-10T10:20:55.583Z,94654.14
2018-02-10T10:23:23.991Z,94660.58
2018-02-10T10:25:52.387Z,94661.06
2018-02-10T10:28:20.782Z,94662.48
2018-02-10T10:30:49.231Z,94666.49
2018-02-10T10:33:17.655Z,94659.23
2018-02-10T10:35:46.057Z,94656.49
2018-02-10T10:38:14.516Z,94663.59
2018-02-10T10:40:42.946Z,94660.05
2018-02-10T10:43:11.483Z,94660.84
2018-02-10T10:45:39.925Z,94655.50
2018-02-10T10:48:08.328Z,94667.66
2018-02-10T10:50:36.732Z,94664.38
2018-02-10T10:53:05.154Z,94664.91
2018-02-10T10:55:33.553Z,94663.10
2018-02-10T10:58:02.088Z,94663.05
2018-02-10T11:00:30.484Z,94666.13
2018-02-10T11:02:58.912Z,94669.59
2018-02-10T11:05:27.391Z,94667.15
2018-02-10T11:07:55.754Z,94662.09
2018-02-10T11:10:24.235Z,94655.06
2018-02-10T11:12:52.666Z,94654.10
2018-02-10T11:15:21.063Z,94638.80
2018-02-10T11:17:49.547Z,94643.73
2018-02-10T11:20:17.972Z,94638.56
2018-02-10T11:22:46.361Z,94645.25
2018-02-10T11:25:14.784Z,94644.55
2018-02-10T11:27:43.235Z,94642.14
2018-02-10T11:30:11.654Z,94639.40
2018-02-10T11:32:40.037Z,94641.61
2018-02-10T11:35:08.502Z,94642.75
2018-02-10T11:37:36.973Z,94641.98
2018-02-10T11:40:05.374Z,94631.73
2018-02-10T11:42:33.808Z,94631.79
2018-02-10T11:45:02.231Z,94627.78
2018-02-10T11:47:30.647Z,94617.95
2018-02-10T11:49:59.041Z,94632.43
2018-02-10T11:52:27.444Z,94632.97
2018-02-10T11:54:55.882Z,94634.94
2018-02-10T11:57:24.362Z,94644.09
2018-02-10T11:59:52.763Z,94643.64
2018-02-10T12:02:21.232Z,94636.36
2018-02-10T12:04:49.640Z,94637.77
2018-02-10T12:07:18.050Z,94642.19
2018-02-10T12:09:46.540Z,94636.41
2018-02-10T12:12:14.944Z,94637.50
2018-02-10T12:14:43.348Z,94640.51
2018-02-10T12:17:11.878Z,94644.30
2018-02-10T12:19:40.351Z,94643.87
2018-02-10T12:22:08.790Z,94646.42
2018-02-10T12:24:37.210Z,94649.41
2018-02-10T12:27:05.615Z,94648.80
2018-02-10T12:29:34.043Z,94644.48
2018-02-10T12:32:02.453Z,94642.96
2018-02-10T12:34:30.915Z,94636.05
2018-02-10T12:36:59.332Z,94633.61
2018-02-10T12:39:27.739Z,94633.61
2018-02-10T12:41:56.247Z,94635.09
2018-02-10T12:44:24.655Z,94634.84
2018-02-10T12:46:53.134Z,94626.42
2018-02-10T12:49:37.644Z,94629.75
2018-02-10T12:52:06.108Z,94619.92
2018-02-10T12:54:34.516Z,94617.95
2018-02-10T12:57:02.935Z,94614.82
2018-02-10T12:59:31.355Z,94620.00
2018-02-10T13:01:59.793Z,94617.13
2018-02-10T13:04:28.275Z,94620.28
2018-02-10T13:06:56.702Z,94619.98
2018-02-10T13:09:25.112Z,94618.78
2018-02-10T13:11:53.630Z,94622.41
2018-02-10T13:14:22.052Z,94618.91
2018-02-10T13:16:50.633Z,94615.33
2018-02-10T13:19:19.045Z,94615.84
2018-02-10T13:21:47.471Z,94615.08
2018-02-10T13:24:15.878Z,94614.88
2018-02-10T13:26:44.276Z,94618.00
2018-02-10T13:29:12.782Z,94610.88
2018-02-10T13:31:41.217Z,94610.63
2018-02-10T13:34:09.697Z,94608.89
2018-02-10T13:36:38.097Z,94610.39
2018-02-10T13:39:06.516Z,94607.15
2018-02-10T13:41:34.985Z,94611.47
2018-02-10T13:44:03.533Z,94603.21
2018-02-10T13:46:32.038Z,94601.93
2018-02-10T13:49:00.468Z,94594.93
2018-02-10T13:51:28.960Z,94593.06
2018-02-10T13:53:57.459Z,94592.92
2018-02-10T13:56:25.866Z,94585.95
2018-02-10T13:58:54.380Z,94582.43
2018-02-10T14:01:22.880Z,94580.39
2018-02-10T14:03:52.275Z,94573.96
2018-02-10T14:06:20.937Z,94576.39
2018-02-10T14:08:49.345Z,94570.29
2018-02-10T14:11:17.756Z,94562.91
2018-02-10T14:13:46.181Z,94571.56
2018-02-10T14:16:14.601Z,94568.80
2018-02-10T14:18:43.042Z,94567.11
2018-02-10T14:21:11.437Z,94569.38
2018-02-10T14:23:39.890Z,94569.86
2018-02-10T14:26:08.316Z,94567.87
2018-02-10T14:28:36.775Z,94565.70
2018-02-10T14:31:05.287Z,94560.28
2018-02-10T14:33:33.675Z,94566.86
2018-02-10T14:36:02.063Z,94572.34
2018-02-10T14:38:30.470Z,94564.96
2018-02-10T14:40:58.916Z,94565.14
2018-02-10T14:43:27.323Z,94568.88
2018-02-10T14:45:55.910Z,94561.17
2018-02-10T14:48:24.308Z,94552.77
2018-02-10T14:50:52.732Z,94551.43
2018-02-10T14:53:21.146Z,94559.67
2018-02-10T14:55:49.528Z,94560.77
2018-02-10T14:58:18.003Z,94560.03
2018-02-10T15:00:46.409Z,94561.66
2018-02-10T15:03:14.820Z,94559.81
2018-02-10T15:05:43.230Z,94558.22
2018-02-10T15:08:11.623Z,94557.23
2018-02-10T15:10:40.156Z,94551.97
2018-02-10T15:13:08.544Z,94554.03
2018-02-10T15:15:37.009Z,94559.70
2018-02-10T15:18:05.436Z,94556.77
2018-02-10T15:20:33.850Z,94552.57
2018-02-10T15:23:02.290Z,94559.86
2018-02-10T15:25:30.692Z,94558.13
2018-02-10T15:27:59.146Z,94563.50
2018-02-10T15:30:39.905Z,94563.59
2018-02-10T15:33:21.001Z,94568.12
2018-02-10T15:35:49.512Z,94567.89
2018-02-10T15:38:18.060Z,94569.42
2018-02-10T15:40:46.454Z,94573.19
2018-02-10T15:43:14.887Z,94574.95
2018-02-10T15:45:43.371Z,94581.13
2018-02-10T15:48:11.755Z,94576.12
2018-02-10T15:50:40.170Z,94569.22
2018-02-10T15:53:08.677Z,94578.12
2018-02-10T15:55:37.089Z,94575.76
2018-02-10T15:58:05.516Z,94570.92
2018-02-10T16:00:33.927Z,94568.70
2018-02-10T16:03:02.354Z,94574.38
2018-02-10T16:05:30.753Z,94569.45
2018-02-10T16:07:59.174Z,94568.02
2018-02-10T16:10:27.727Z,94571.25
2018-02-10T16:12:56.132Z,94566.28
2018-02-10T16:15:24.547Z,94572.53
2018-02-10T16:17:52.960Z,94569.17
2018-02-10T16:20:21.342Z,94565.58
2018-02-10T16:22:49.974Z,94565.13
2018-02-10T16:25:18.375Z,94565.00
2018-02-10T16:27:46.778Z,94566.95
2018-02-10T16:30:15.300Z,94567.45
2018-02-10T16:32:43.698Z,94576.32
2018-02-10T16:35:12.136Z,94572.97
2018-02-10T16:37:40.551Z,94574.17
2018-02-10T16:40:08.981Z,94566.04
2018-02-10T16:42:37.373Z,94560.31
2018-02-10T16:45:06.154Z,94562.58
2018-02-10T16:47:34.585Z,94551.44
2018-02-10T16:50:02.978Z,94555.13
2018-02-10T16:52:31.375Z,94554.88
2018-02-10T16:54:59.763Z,94566.36
2018-02-10T16:57:28.214Z,94564.61
2018-02-10T16:59:56.617Z,94568.49
2018-02-10T17:02:25.328Z,94567.56
2018-02-10T17:04:53.723Z,94563.48
2018-02-10T17:07:22.097Z,94565.39
2018-02-10T17:09:50.514Z,94564.06
2018-02-10T17:12:18.918Z,94561.66
2018-02-10T17:14:47.469Z,94566.11
2018-02-10T17:17:15.862Z,94562.06
2018-02-10T17:19:44.243Z,94559.70
2018-02-10T17:22:12.679Z,94561.32
2018-02-10T17:24:41.127Z,94558.91
2018-02-10T17:27:09.514Z,94559.35
2018-02-10T17:29:37.982Z,94554.48
2018-02-10T17:32:06.395Z,94555.97
2018-02-10T17:34:34.783Z,94563.52
2018-02-10T17:37:03.190Z,94561.59
2018-02-10T17:39:32.061Z,94556.74
2018-02-10T17:42:00.450Z,94561.39
2018-02-10T17:44:28.857Z,94558.36
2018-02-10T17:46:57.305Z,94556.46
2018-02-10T17:49:25.711Z,94558.53
2018-02-10T17:51:54.194Z,94563.83
2018-02-10T17:54:22.582Z,94556.42
2018-02-10T17:56:51.003Z,94551.22
2018-02-10T17:59:19.408Z,94560.84
2018-02-10T18:01:47.912Z,94554.89
2018-02-10T18:04:16.347Z,94547.92
2018-02-10T18:06:44.770Z,94546.86
2018-02-10T18:09:13.265Z,94545.92
2018-02-10T18:11:41.676Z,94544.42
2018-02-10T18:14:10.069Z,94545.70
2018-02-10T18:16:38.535Z,94550.84
2018-02-10T18:19:06.933Z,94553.68
2018-02-10T18:21:35.412Z,94551.96
2018-02-10T18:24:03.818Z,94549.07
2018-02-10T18:26:32.235Z,94545.16
2018-02-10T18:29:00.972Z,94545.78
2018-02-10T18:31:29.362Z,94534.71
2018-02-10T18:33:57.783Z,94534.66
2018-02-10T18:36:26.192Z,94534.00
2018-02-10T18:38:54.621Z,94523.81
2018-02-10T18:41:23.061Z,94528.93
2018-02-10T18:43:51.462Z,94528.16
2018-02-10T18:46:19.857Z,94524.55
2018-02-10T18:48:48.296Z,94521.33
2018-02-10T18:51:16.706Z,94524.28
2018-02-10T18:53:45.190Z,94521.70
2018-02-10T18:56:13.630Z,94511.74
2018-02-10T18:58:42.103Z,94510.63
2018-02-10T19:01:10.565Z,94507.01
2018-02-10T19:03:38.953Z,94514.42
2018-02-10T19:06:07.389Z,94514.56
2018-02-10T19:08:35.786Z,94512.45
2018-02-10T19:11:04.234Z,94503.21
2018-02-10T19:13:32.766Z,94506.37
2018-02-10T19:16:01.167Z,94507.67
2018-02-10T19:18:29.615Z,94500.34
2018-02-10T19:20:58.053Z,94497.78
2018-02-10T19:23:26.611Z,94489.14
2018-02-10T19:25:55.030Z,94492.77
2018-02-10T19:28:23.458Z,94487.83
2018-02-10T19:30:51.969Z,94493.45
2018-02-10T19:33:20.366Z,94490.14
2018-02-10T19:35:48.755Z,94488.24
2018-02-10T19:38:17.167Z,94488.17
2018-02-10T19:40:45.806Z,94481.98
2018-02-10T19:43:14.230Z,94489.59
2018-02-10T19:45:42.647Z,94491.19
2018-02-10T19:48:11.113Z,94491.89
2018-02-10T19:50:39.515Z,94490.11
2018-02-10T19:53:08.131Z,94490.97
2018-02-10T19:55:36.587Z,94491.19
2018-02-10T19:58:05.103Z,94483.13
2018-02-10T20:00:33.501Z,94479.61
2018-02-10T20:03:01.907Z,94480.05
2018-02-10T20:05:30.710Z,94474.30
2018-02-10T20:07:59.114Z,94489.36
2018-02-10T20:10:27.528Z,94485.14
2018-02-10T20:12:55.932Z,94481.65
2018-02-10T20:15:24.331Z,94471.22
2018-02-10T20:17:52.753Z,94472.99
2018-02-10T20:20:21.171Z,94475.11
2018-02-10T20:22:49.657Z,94475.75
2018-02-10T20:25:18.221Z,94475.97
2018-02-10T20:27:47.684Z,94472.67
2018-02-10T20:30:16.162Z,94474.75
2018-02-10T20:32:44.589Z,94472.12
2018-02-10T20:35:13.174Z,94472.57
2018-02-10T20:37:41.599Z,94464.23
2018-02-10T20:40:10.008Z,94457.24
2018-02-10T20:42:38.426Z,94448.52
2018-02-10T20:45:06.942Z,94444.13
2018-02-10T20:47:35.412Z,94442.12
2018-02-10T20:50:03.803Z,94441.77
2018-02-10T20:52:32.203Z,94438.62
2018-02-10T20:55:00.592Z,94434.25
2018-02-10T20:57:29.065Z,94436.96
2018-02-10T20:59:57.594Z,94430.16
2018-02-10T21:02:26.403Z,94433.27
2018-02-10T21:04:54.801Z,94427.20
2018-02-10T21:07:23.214Z,94429.49
2018-02-10T21:09:51.604Z,94427.63
2018-02-10T21:12:20.051Z,94431.45
2018-02-10T21:14:48.459Z,94423.11
2018-02-10T21:17:16.865Z,94428.34
2018-02-10T21:19:45.269Z,94424.54
2018-02-10T21:22:13.670Z,94409.11
2018-02-10T21:24:42.112Z,94409.11
2018-02-10T21:27:10.519Z,94406.91
2018-02-10T21:29:39.455Z,94397.36
2018-02-10T21:32:07.883Z,94392.15
2018-02-10T21:34:36.279Z,94389.06
2018-02-10T21:37:04.657Z,94378.38
2018-02-10T21:39:33.081Z,94369.39
2018-02-10T21:42:01.779Z,94368.68
2018-02-10T21:44:30.191Z,94365.00
2018-02-10T21:46:58.597Z,94360.81
2018-02-10T21:49:26.969Z,94354.08
2018-02-10T21:51:55.353Z,94343.94
2018-02-10T21:54:23.778Z,94338.87
2018-02-10T21:56:52.190Z,94342.16
2018-02-10T21:59:20.667Z,94342.22
2018-02-10T22:01:49.044Z,94341.09
2018-02-10T22:04:17.417Z,94331.77
2018-02-10T22:06:45.838Z,94327.88
2018-02-10T22:09:14.204Z,94323.66
2018-02-10T22:11:42.642Z,94317.19
2018-02-10T22:14:11.157Z,94316.98
2018-02-10T22:16:39.547Z,94309.31
2018-02-10T22:19:08.084Z,94305.52
2018-02-10T22:21:36.535Z,94299.70
2018-02-10T22:24:04.938Z,94292.02
2018-02-10T22:26:33.355Z,94297.72
2018-02-10T22:31:36.373Z,94280.23
2018-02-10T22:34:04.807Z,94272.31
2018-02-10T22:36:33.221Z,94265.66
2018-02-10T22:39:01.601Z,94282.22
2018-02-10T22:41:30.024Z,94275.13
2018-02-10T22:43:58.405Z,94276.72
2018-02-10T22:46:26.843Z,94265.59
2018-02-10T22:48:55.260Z,94261.81
2018-02-10T22:51:23.745Z,94256.73
2018-02-10T22:53:52.118Z,94265.22
2018-02-10T22:56:20.514Z,94260.98
2018-02-10T22:58:49.014Z,94257.67
2018-02-10T23:01:17.434Z,94260.63
2018-02-10T23:03:45.894Z,94253.48
2018-02-10T23:06:14.328Z,94243.45
2018-02-10T23:08:42.710Z,94239.53
2018-02-10T23:11:11.122Z,94235.80
2018-02-10T23:13:39.501Z,94235.56
2018-02-10T23:16:07.905Z,94228.98
2018-02-10T23:18:36.407Z,94225.73
2018-02-10T23:21:04.804Z,94209.29
2018-02-10T23:23:33.193Z,94204.70
2018-02-10T23:26:01.566Z,94201.70
2018-02-10T23:28:29.952Z,94200.39
2018-02-10T23:30:58.328Z,94194.14
2018-02-10T23:33:26.881Z,94188.58
2018-02-10T23:35:55.273Z,94181.62
2018-02-10T23:38:23.663Z,94176.69
2018-02-10T23:40:52.043Z,94173.89
2018-02-10T23:43:20.471Z,94173.77
2018-02-10T23:45:48.872Z,94165.35
2018-02-10T23:48:17.259Z,94167.37
2018-02-10T23:50:45.701Z,94162.47
2018-02-10T23:53:14.079Z,94150.77
2018-02-10T23:55:42.450Z,94154.42
2018-02-10T23:58:10.934Z,94149.42
